sensor_id;sensor_type;location;lat;lon;timestamp;P1;durP1;ratioP1;P2;durP2;ratioP2
35667;SDS011;22158;59.280;17.806;2023-07-09T00:01:42;6.03;;;2.03;;
35667;SDS011;22158;59.280;17.806;2023-07-09T00:04:09;3.17;;;1.73;;
35667;SDS011;22158;59.280;17.806;2023-07-09T00:06:35;3.97;;;2.15;;
35667;SDS011;22158;59.280;17.806;2023-07-09T00:09:01;6.80;;;2.17;;
35667;SDS011;22158;59.280;17.806;2023-07-09T00:11:28;3.42;;;1.80;;
35667;SDS011;22158;59.280;17.806;2023-07-09T00:13:53;2.78;;;1.60;;
35667;SDS011;22158;59.280;17.806;2023-07-09T00:16:20;5.57;;;1.92;;
35667;SDS011;22158;59.280;17.806;2023-07-09T00:18:49;2.90;;;1.92;;
35667;SDS011;22158;59.280;17.806;2023-07-09T00:21:16;4.22;;;2.17;;
35667;SDS011;22158;59.280;17.806;2023-07-09T00:23:42;2.55;;;1.90;;
35667;SDS011;22158;59.280;17.806;2023-07-09T00:26:11;2.80;;;1.67;;
35667;SDS011;22158;59.280;17.806;2023-07-09T00:28:39;4.60;;;1.75;;
35667;SDS011;22158;59.280;17.806;2023-07-09T00:31:07;3.15;;;2.50;;
35667;SDS011;22158;59.280;17.806;2023-07-09T00:33:39;4.07;;;1.90;;
35667;SDS011;22158;59.280;17.806;2023-07-09T00:39:04;3.17;;;2.08;;
35667;SDS011;22158;59.280;17.806;2023-07-09T00:41:34;3.97;;;2.17;;
35667;SDS011;22158;59.280;17.806;2023-07-09T00:51:58;3.00;;;2.08;;
35667;SDS011;22158;59.280;17.806;2023-07-09T00:56:59;2.35;;;1.63;;
35667;SDS011;22158;59.280;17.806;2023-07-09T00:59:31;3.30;;;1.63;;
35667;SDS011;22158;59.280;17.806;2023-07-09T01:01:57;3.08;;;2.13;;
35667;SDS011;22158;59.280;17.806;2023-07-09T01:04:25;3.28;;;2.42;;
35667;SDS011;22158;59.280;17.806;2023-07-09T01:06:52;3.38;;;2.00;;
35667;SDS011;22158;59.280;17.806;2023-07-09T01:09:20;3.20;;;2.10;;
35667;SDS011;22158;59.280;17.806;2023-07-09T01:11:46;6.93;;;1.90;;
35667;SDS011;22158;59.280;17.806;2023-07-09T01:14:13;4.03;;;2.03;;
35667;SDS011;22158;59.280;17.806;2023-07-09T01:16:46;9.95;;;3.55;;
35667;SDS011;22158;59.280;17.806;2023-07-09T01:19:41;3.65;;;1.98;;
35667;SDS011;22158;59.280;17.806;2023-07-09T01:22:12;4.53;;;1.83;;
35667;SDS011;22158;59.280;17.806;2023-07-09T01:24:50;3.60;;;2.50;;
35667;SDS011;22158;59.280;17.806;2023-07-09T01:27:26;3.22;;;2.13;;
35667;SDS011;22158;59.280;17.806;2023-07-09T01:29:58;2.78;;;1.90;;
35667;SDS011;22158;59.280;17.806;2023-07-09T01:32:25;3.33;;;1.98;;
35667;SDS011;22158;59.280;17.806;2023-07-09T01:34:52;2.35;;;1.80;;
35667;SDS011;22158;59.280;17.806;2023-07-09T01:37:20;2.85;;;2.10;;
35667;SDS011;22158;59.280;17.806;2023-07-09T01:39:49;4.28;;;2.05;;
35667;SDS011;22158;59.280;17.806;2023-07-09T01:42:15;5.18;;;1.75;;
35667;SDS011;22158;59.280;17.806;2023-07-09T01:44:42;3.85;;;1.98;;
35667;SDS011;22158;59.280;17.806;2023-07-09T01:47:10;4.40;;;1.70;;
35667;SDS011;22158;59.280;17.806;2023-07-09T01:49:36;3.35;;;2.30;;
35667;SDS011;22158;59.280;17.806;2023-07-09T01:52:02;4.18;;;1.60;;
35667;SDS011;22158;59.280;17.806;2023-07-09T01:54:30;4.00;;;2.08;;
35667;SDS011;22158;59.280;17.806;2023-07-09T01:57:12;3.47;;;2.13;;
35667;SDS011;22158;59.280;17.806;2023-07-09T01:59:48;3.83;;;1.77;;
35667;SDS011;22158;59.280;17.806;2023-07-09T02:02:19;3.40;;;2.20;;
35667;SDS011;22158;59.280;17.806;2023-07-09T02:04:49;2.78;;;1.52;;
35667;SDS011;22158;59.280;17.806;2023-07-09T02:07:16;4.68;;;2.70;;
35667;SDS011;22158;59.280;17.806;2023-07-09T02:09:42;2.60;;;1.90;;
35667;SDS011;22158;59.280;17.806;2023-07-09T02:12:08;4.72;;;2.08;;
35667;SDS011;22158;59.280;17.806;2023-07-09T02:14:35;4.22;;;2.33;;
35667;SDS011;22158;59.280;17.806;2023-07-09T02:17:01;5.03;;;2.03;;
35667;SDS011;22158;59.280;17.806;2023-07-09T02:19:28;3.42;;;2.22;;
35667;SDS011;22158;59.280;17.806;2023-07-09T02:21:54;3.05;;;2.10;;
35667;SDS011;22158;59.280;17.806;2023-07-09T02:24:20;3.25;;;1.95;;
35667;SDS011;22158;59.280;17.806;2023-07-09T02:26:49;5.45;;;2.00;;
35667;SDS011;22158;59.280;17.806;2023-07-09T02:29:15;3.25;;;2.40;;
35667;SDS011;22158;59.280;17.806;2023-07-09T02:31:41;5.22;;;2.58;;
35667;SDS011;22158;59.280;17.806;2023-07-09T02:34:06;4.60;;;2.10;;
35667;SDS011;22158;59.280;17.806;2023-07-09T02:36:32;2.78;;;2.15;;
35667;SDS011;22158;59.280;17.806;2023-07-09T02:38:58;2.72;;;1.88;;
35667;SDS011;22158;59.280;17.806;2023-07-09T02:41:23;3.40;;;2.15;;
35667;SDS011;22158;59.280;17.806;2023-07-09T02:43:49;4.18;;;1.98;;
35667;SDS011;22158;59.280;17.806;2023-07-09T02:46:14;4.80;;;1.88;;
35667;SDS011;22158;59.280;17.806;2023-07-09T02:48:40;1.98;;;1.67;;
35667;SDS011;22158;59.280;17.806;2023-07-09T02:51:05;3.35;;;1.70;;
35667;SDS011;22158;59.280;17.806;2023-07-09T02:53:31;3.30;;;1.73;;
35667;SDS011;22158;59.280;17.806;2023-07-09T02:55:56;2.38;;;1.77;;
35667;SDS011;22158;59.280;17.806;2023-07-09T02:58:22;2.83;;;1.77;;
35667;SDS011;22158;59.280;17.806;2023-07-09T03:00:50;2.92;;;1.63;;
35667;SDS011;22158;59.280;17.806;2023-07-09T03:03:19;3.47;;;2.35;;
35667;SDS011;22158;59.280;17.806;2023-07-09T03:05:45;2.88;;;2.10;;
35667;SDS011;22158;59.280;17.806;2023-07-09T03:08:12;5.55;;;1.88;;
35667;SDS011;22158;59.280;17.806;2023-07-09T03:10:38;2.85;;;2.00;;
35667;SDS011;22158;59.280;17.806;2023-07-09T03:13:04;2.58;;;1.58;;
35667;SDS011;22158;59.280;17.806;2023-07-09T03:15:30;2.65;;;1.90;;
35667;SDS011;22158;59.280;17.806;2023-07-09T03:17:56;3.13;;;2.28;;
35667;SDS011;22158;59.280;17.806;2023-07-09T03:20:21;2.22;;;1.80;;
35667;SDS011;22158;59.280;17.806;2023-07-09T03:22:47;2.78;;;2.10;;
35667;SDS011;22158;59.280;17.806;2023-07-09T03:25:13;2.92;;;1.92;;
35667;SDS011;22158;59.280;17.806;2023-07-09T03:27:39;2.83;;;1.90;;
35667;SDS011;22158;59.280;17.806;2023-07-09T03:30:05;2.47;;;1.60;;
35667;SDS011;22158;59.280;17.806;2023-07-09T03:32:31;4.50;;;1.85;;
35667;SDS011;22158;59.280;17.806;2023-07-09T03:34:57;4.38;;;2.50;;
35667;SDS011;22158;59.280;17.806;2023-07-09T03:37:22;5.70;;;2.00;;
35667;SDS011;22158;59.280;17.806;2023-07-09T03:39:48;3.08;;;2.22;;
35667;SDS011;22158;59.280;17.806;2023-07-09T03:42:13;4.32;;;2.20;;
35667;SDS011;22158;59.280;17.806;2023-07-09T03:44:39;2.17;;;1.73;;
35667;SDS011;22158;59.280;17.806;2023-07-09T03:47:06;2.78;;;2.15;;
35667;SDS011;22158;59.280;17.806;2023-07-09T03:49:32;2.75;;;1.90;;
35667;SDS011;22158;59.280;17.806;2023-07-09T03:51:58;2.90;;;2.15;;
35667;SDS011;22158;59.280;17.806;2023-07-09T03:54:23;3.15;;;2.20;;
35667;SDS011;22158;59.280;17.806;2023-07-09T03:56:49;5.25;;;3.17;;
35667;SDS011;22158;59.280;17.806;2023-07-09T03:59:15;3.15;;;2.20;;
35667;SDS011;22158;59.280;17.806;2023-07-09T04:01:40;5.18;;;2.53;;
35667;SDS011;22158;59.280;17.806;2023-07-09T04:04:14;4.10;;;2.70;;
35667;SDS011;22158;59.280;17.806;2023-07-09T04:06:39;3.08;;;2.35;;
35667;SDS011;22158;59.280;17.806;2023-07-09T04:09:05;5.15;;;2.58;;
35667;SDS011;22158;59.280;17.806;2023-07-09T04:11:31;5.65;;;3.20;;
35667;SDS011;22158;59.280;17.806;2023-07-09T04:13:56;5.20;;;3.20;;
35667;SDS011;22158;59.280;17.806;2023-07-09T04:16:22;3.35;;;2.80;;
35667;SDS011;22158;59.280;17.806;2023-07-09T04:18:48;5.20;;;2.72;;
35667;SDS011;22158;59.280;17.806;2023-07-09T04:21:13;3.20;;;2.70;;
35667;SDS011;22158;59.280;17.806;2023-07-09T04:23:39;5.50;;;3.20;;
35667;SDS011;22158;59.280;17.806;2023-07-09T04:26:04;4.22;;;3.38;;
35667;SDS011;22158;59.280;17.806;2023-07-09T04:28:34;3.80;;;2.80;;
35667;SDS011;22158;59.280;17.806;2023-07-09T04:30:59;3.60;;;3.00;;
35667;SDS011;22158;59.280;17.806;2023-07-09T04:33:25;6.28;;;3.10;;
35667;SDS011;22158;59.280;17.806;2023-07-09T04:35:51;3.53;;;2.97;;
35667;SDS011;22158;59.280;17.806;2023-07-09T04:38:16;6.15;;;3.30;;
35667;SDS011;22158;59.280;17.806;2023-07-09T04:40:42;6.55;;;3.53;;
35667;SDS011;22158;59.280;17.806;2023-07-09T04:43:08;4.75;;;3.17;;
35667;SDS011;22158;59.280;17.806;2023-07-09T04:45:33;6.95;;;3.70;;
35667;SDS011;22158;59.280;17.806;2023-07-09T04:47:59;6.00;;;3.40;;
35667;SDS011;22158;59.280;17.806;2023-07-09T04:50:25;8.18;;;3.63;;
35667;SDS011;22158;59.280;17.806;2023-07-09T04:52:50;4.10;;;3.53;;
35667;SDS011;22158;59.280;17.806;2023-07-09T04:55:17;5.47;;;3.95;;
35667;SDS011;22158;59.280;17.806;2023-07-09T04:57:44;6.40;;;3.78;;
35667;SDS011;22158;59.280;17.806;2023-07-09T05:00:10;5.55;;;3.75;;
35667;SDS011;22158;59.280;17.806;2023-07-09T05:02:36;6.43;;;4.03;;
35667;SDS011;22158;59.280;17.806;2023-07-09T05:05:02;6.45;;;3.78;;
35667;SDS011;22158;59.280;17.806;2023-07-09T05:07:28;7.53;;;3.60;;
35667;SDS011;22158;59.280;17.806;2023-07-09T05:09:53;4.18;;;3.78;;
35667;SDS011;22158;59.280;17.806;2023-07-09T05:12:19;4.65;;;3.65;;
35667;SDS011;22158;59.280;17.806;2023-07-09T05:14:45;6.88;;;3.70;;
35667;SDS011;22158;59.280;17.806;2023-07-09T05:17:11;5.78;;;3.78;;
35667;SDS011;22158;59.280;17.806;2023-07-09T05:19:37;4.72;;;3.85;;
35667;SDS011;22158;59.280;17.806;2023-07-09T05:22:03;5.63;;;3.90;;
35667;SDS011;22158;59.280;17.806;2023-07-09T05:24:29;4.43;;;3.45;;
35667;SDS011;22158;59.280;17.806;2023-07-09T05:26:55;5.30;;;3.67;;
35667;SDS011;22158;59.280;17.806;2023-07-09T05:29:20;5.05;;;3.58;;
35667;SDS011;22158;59.280;17.806;2023-07-09T05:31:47;5.78;;;3.15;;
35667;SDS011;22158;59.280;17.806;2023-07-09T05:34:12;5.43;;;3.92;;
35667;SDS011;22158;59.280;17.806;2023-07-09T05:36:38;6.72;;;3.40;;
35667;SDS011;22158;59.280;17.806;2023-07-09T05:39:04;5.68;;;3.92;;
35667;SDS011;22158;59.280;17.806;2023-07-09T05:41:30;5.32;;;3.53;;
35667;SDS011;22158;59.280;17.806;2023-07-09T05:43:55;5.03;;;3.13;;
35667;SDS011;22158;59.280;17.806;2023-07-09T05:46:22;5.85;;;3.47;;
35667;SDS011;22158;59.280;17.806;2023-07-09T05:48:48;6.45;;;3.60;;
35667;SDS011;22158;59.280;17.806;2023-07-09T05:51:14;5.38;;;3.00;;
35667;SDS011;22158;59.280;17.806;2023-07-09T05:53:39;4.72;;;3.80;;
35667;SDS011;22158;59.280;17.806;2023-07-09T05:56:05;4.22;;;3.17;;
35667;SDS011;22158;59.280;17.806;2023-07-09T05:58:31;4.10;;;3.17;;
35667;SDS011;22158;59.280;17.806;2023-07-09T06:00:57;6.15;;;2.83;;
35667;SDS011;22158;59.280;17.806;2023-07-09T06:03:23;7.00;;;3.00;;
35667;SDS011;22158;59.280;17.806;2023-07-09T06:05:51;3.80;;;3.40;;
35667;SDS011;22158;59.280;17.806;2023-07-09T06:08:18;5.38;;;3.42;;
35667;SDS011;22158;59.280;17.806;2023-07-09T06:10:51;6.80;;;3.13;;
35667;SDS011;22158;59.280;17.806;2023-07-09T06:13:19;6.20;;;3.22;;
35667;SDS011;22158;59.280;17.806;2023-07-09T06:15:46;4.53;;;3.22;;
35667;SDS011;22158;59.280;17.806;2023-07-09T06:18:12;4.55;;;2.78;;
35667;SDS011;22158;59.280;17.806;2023-07-09T06:20:38;5.38;;;3.15;;
35667;SDS011;22158;59.280;17.806;2023-07-09T06:23:03;3.90;;;2.95;;
35667;SDS011;22158;59.280;17.806;2023-07-09T06:25:29;3.75;;;2.92;;
35667;SDS011;22158;59.280;17.806;2023-07-09T06:27:54;4.05;;;2.63;;
35667;SDS011;22158;59.280;17.806;2023-07-09T06:30:20;7.05;;;3.10;;
35667;SDS011;22158;59.280;17.806;2023-07-09T06:32:45;6.07;;;3.10;;
35667;SDS011;22158;59.280;17.806;2023-07-09T06:35:11;4.80;;;3.05;;
35667;SDS011;22158;59.280;17.806;2023-07-09T06:37:36;4.93;;;3.17;;
35667;SDS011;22158;59.280;17.806;2023-07-09T06:40:02;6.45;;;3.30;;
35667;SDS011;22158;59.280;17.806;2023-07-09T06:42:29;4.60;;;3.50;;
35667;SDS011;22158;59.280;17.806;2023-07-09T06:44:55;5.05;;;3.10;;
35667;SDS011;22158;59.280;17.806;2023-07-09T06:47:21;5.40;;;2.83;;
35667;SDS011;22158;59.280;17.806;2023-07-09T06:49:46;4.70;;;3.58;;
35667;SDS011;22158;59.280;17.806;2023-07-09T06:52:12;5.80;;;2.97;;
35667;SDS011;22158;59.280;17.806;2023-07-09T06:54:38;4.63;;;3.10;;
35667;SDS011;22158;59.280;17.806;2023-07-09T06:57:03;5.07;;;3.63;;
35667;SDS011;22158;59.280;17.806;2023-07-09T06:59:29;3.63;;;3.08;;
35667;SDS011;22158;59.280;17.806;2023-07-09T07:01:55;5.95;;;2.97;;
35667;SDS011;22158;59.280;17.806;2023-07-09T07:04:20;4.70;;;3.20;;
35667;SDS011;22158;59.280;17.806;2023-07-09T07:06:46;5.50;;;3.08;;
35667;SDS011;22158;59.280;17.806;2023-07-09T07:09:11;5.45;;;2.80;;
35667;SDS011;22158;59.280;17.806;2023-07-09T07:11:37;4.22;;;3.22;;
35667;SDS011;22158;59.280;17.806;2023-07-09T07:14:03;3.10;;;2.40;;
35667;SDS011;22158;59.280;17.806;2023-07-09T07:16:28;4.65;;;3.30;;
35667;SDS011;22158;59.280;17.806;2023-07-09T07:18:54;3.38;;;2.67;;
35667;SDS011;22158;59.280;17.806;2023-07-09T07:21:19;5.75;;;2.60;;
35667;SDS011;22158;59.280;17.806;2023-07-09T07:23:45;4.55;;;2.75;;
35667;SDS011;22158;59.280;17.806;2023-07-09T07:26:10;5.80;;;3.05;;
35667;SDS011;22158;59.280;17.806;2023-07-09T07:28:36;4.75;;;2.92;;
35667;SDS011;22158;59.280;17.806;2023-07-09T07:31:02;4.53;;;3.30;;
35667;SDS011;22158;59.280;17.806;2023-07-09T07:33:35;3.67;;;3.03;;
35667;SDS011;22158;59.280;17.806;2023-07-09T07:36:05;3.42;;;2.80;;
35667;SDS011;22158;59.280;17.806;2023-07-09T07:38:31;3.30;;;2.58;;
35667;SDS011;22158;59.280;17.806;2023-07-09T07:40:57;3.30;;;2.75;;
35667;SDS011;22158;59.280;17.806;2023-07-09T07:43:22;3.03;;;2.55;;
35667;SDS011;22158;59.280;17.806;2023-07-09T07:45:48;3.67;;;2.88;;
35667;SDS011;22158;59.280;17.806;2023-07-09T07:48:14;2.25;;;2.00;;
35667;SDS011;22158;59.280;17.806;2023-07-09T07:50:39;5.47;;;2.47;;
35667;SDS011;22158;59.280;17.806;2023-07-09T07:53:06;2.58;;;2.15;;
35667;SDS011;22158;59.280;17.806;2023-07-09T07:55:33;2.67;;;2.20;;
35667;SDS011;22158;59.280;17.806;2023-07-09T07:57:59;2.65;;;2.25;;
35667;SDS011;22158;59.280;17.806;2023-07-09T08:00:27;3.75;;;2.47;;
35667;SDS011;22158;59.280;17.806;2023-07-09T08:02:53;11.18;;;2.72;;
35667;SDS011;22158;59.280;17.806;2023-07-09T08:05:19;5.47;;;2.65;;
35667;SDS011;22158;59.280;17.806;2023-07-09T08:07:44;2.30;;;2.08;;
35667;SDS011;22158;59.280;17.806;2023-07-09T08:10:10;4.53;;;2.42;;
35667;SDS011;22158;59.280;17.806;2023-07-09T08:12:37;2.15;;;1.77;;
35667;SDS011;22158;59.280;17.806;2023-07-09T08:15:02;2.88;;;1.83;;
35667;SDS011;22158;59.280;17.806;2023-07-09T08:17:29;2.92;;;2.30;;
35667;SDS011;22158;59.280;17.806;2023-07-09T08:19:54;2.70;;;2.17;;
35667;SDS011;22158;59.280;17.806;2023-07-09T08:22:20;4.20;;;2.15;;
35667;SDS011;22158;59.280;17.806;2023-07-09T08:24:50;3.95;;;2.10;;
35667;SDS011;22158;59.280;17.806;2023-07-09T08:27:16;2.38;;;1.80;;
35667;SDS011;22158;59.280;17.806;2023-07-09T08:29:42;2.65;;;1.80;;
35667;SDS011;22158;59.280;17.806;2023-07-09T08:32:08;3.35;;;1.77;;
35667;SDS011;22158;59.280;17.806;2023-07-09T08:34:35;3.35;;;1.95;;
35667;SDS011;22158;59.280;17.806;2023-07-09T08:37:05;2.20;;;1.75;;
35667;SDS011;22158;59.280;17.806;2023-07-09T08:39:31;4.45;;;1.95;;
35667;SDS011;22158;59.280;17.806;2023-07-09T08:42:02;2.33;;;1.67;;
35667;SDS011;22158;59.280;17.806;2023-07-09T08:47:29;2.65;;;2.00;;
35667;SDS011;22158;59.280;17.806;2023-07-09T08:50:13;1.77;;;1.48;;
35667;SDS011;22158;59.280;17.806;2023-07-09T08:52:42;2.10;;;1.50;;
35667;SDS011;22158;59.280;17.806;2023-07-09T08:55:15;1.77;;;1.40;;
35667;SDS011;22158;59.280;17.806;2023-07-09T08:57:47;3.08;;;1.70;;
35667;SDS011;22158;59.280;17.806;2023-07-09T09:00:20;1.90;;;1.45;;
35667;SDS011;22158;59.280;17.806;2023-07-09T09:02:51;4.55;;;1.98;;
35667;SDS011;22158;59.280;17.806;2023-07-09T09:05:21;2.53;;;1.80;;
35667;SDS011;22158;59.280;17.806;2023-07-09T09:07:56;2.28;;;1.63;;
35667;SDS011;22158;59.280;17.806;2023-07-09T09:10:44;4.57;;;2.00;;
35667;SDS011;22158;59.280;17.806;2023-07-09T09:13:14;3.17;;;1.63;;
35667;SDS011;22158;59.280;17.806;2023-07-09T09:15:44;2.03;;;1.67;;
35667;SDS011;22158;59.280;17.806;2023-07-09T09:21:46;2.92;;;2.10;;
35667;SDS011;22158;59.280;17.806;2023-07-09T09:23:48;3.50;;;1.80;;
35667;SDS011;22158;59.280;17.806;2023-07-09T09:26:21;3.22;;;1.88;;
35667;SDS011;22158;59.280;17.806;2023-07-09T09:28:51;2.42;;;1.88;;
35667;SDS011;22158;59.280;17.806;2023-07-09T09:31:18;2.97;;;1.83;;
35667;SDS011;22158;59.280;17.806;2023-07-09T09:33:44;1.70;;;1.60;;
35667;SDS011;22158;59.280;17.806;2023-07-09T09:36:21;1.58;;;1.45;;
35667;SDS011;22158;59.280;17.806;2023-07-09T09:38:49;1.90;;;1.70;;
35667;SDS011;22158;59.280;17.806;2023-07-09T09:41:22;4.13;;;1.88;;
35667;SDS011;22158;59.280;17.806;2023-07-09T09:43:53;2.08;;;1.70;;
35667;SDS011;22158;59.280;17.806;2023-07-09T09:46:20;4.97;;;1.70;;
35667;SDS011;22158;59.280;17.806;2023-07-09T09:48:48;3.97;;;1.77;;
35667;SDS011;22158;59.280;17.806;2023-07-09T09:51:16;2.83;;;1.70;;
35667;SDS011;22158;59.280;17.806;2023-07-09T09:53:49;2.08;;;1.70;;
35667;SDS011;22158;59.280;17.806;2023-07-09T09:56:24;5.63;;;2.28;;
35667;SDS011;22158;59.280;17.806;2023-07-09T09:59:00;2.47;;;1.92;;
35667;SDS011;22158;59.280;17.806;2023-07-09T10:01:30;2.97;;;2.00;;
35667;SDS011;22158;59.280;17.806;2023-07-09T10:04:00;3.47;;;1.70;;
35667;SDS011;22158;59.280;17.806;2023-07-09T10:07:02;5.25;;;2.00;;
35667;SDS011;22158;59.280;17.806;2023-07-09T10:09:42;4.00;;;1.88;;
35667;SDS011;22158;59.280;17.806;2023-07-09T10:12:25;2.85;;;2.17;;
35667;SDS011;22158;59.280;17.806;2023-07-09T10:15:18;2.53;;;2.05;;
35667;SDS011;22158;59.280;17.806;2023-07-09T10:18:02;2.50;;;1.48;;
35667;SDS011;22158;59.280;17.806;2023-07-09T10:20:51;2.78;;;2.08;;
35667;SDS011;22158;59.280;17.806;2023-07-09T10:23:25;4.63;;;2.05;;
35667;SDS011;22158;59.280;17.806;2023-07-09T10:26:09;2.22;;;1.90;;
35667;SDS011;22158;59.280;17.806;2023-07-09T10:28:51;3.72;;;1.77;;
35667;SDS011;22158;59.280;17.806;2023-07-09T10:34:30;4.07;;;1.70;;
35667;SDS011;22158;59.280;17.806;2023-07-09T10:40:03;2.13;;;1.83;;
35667;SDS011;22158;59.280;17.806;2023-07-09T10:45:13;2.42;;;2.10;;
35667;SDS011;22158;59.280;17.806;2023-07-09T10:47:47;2.20;;;1.92;;
35667;SDS011;22158;59.280;17.806;2023-07-09T10:50:23;6.43;;;2.45;;
35667;SDS011;22158;59.280;17.806;2023-07-09T10:53:16;2.63;;;2.03;;
35667;SDS011;22158;59.280;17.806;2023-07-09T10:58:43;3.38;;;2.88;;
35667;SDS011;22158;59.280;17.806;2023-07-09T11:01:18;2.67;;;2.10;;
35667;SDS011;22158;59.280;17.806;2023-07-09T11:03:51;3.55;;;2.38;;
35667;SDS011;22158;59.280;17.806;2023-07-09T11:06:55;2.50;;;2.08;;
35667;SDS011;22158;59.280;17.806;2023-07-09T11:09:34;2.47;;;1.90;;
35667;SDS011;22158;59.280;17.806;2023-07-09T11:12:06;3.33;;;2.80;;
35667;SDS011;22158;59.280;17.806;2023-07-09T11:14:42;2.50;;;1.98;;
35667;SDS011;22158;59.280;17.806;2023-07-09T11:17:15;4.43;;;2.17;;
35667;SDS011;22158;59.280;17.806;2023-07-09T11:19:48;2.67;;;2.15;;
35667;SDS011;22158;59.280;17.806;2023-07-09T11:22:40;2.72;;;2.30;;
35667;SDS011;22158;59.280;17.806;2023-07-09T11:25:07;3.03;;;2.20;;
35667;SDS011;22158;59.280;17.806;2023-07-09T11:27:53;2.70;;;2.22;;
35667;SDS011;22158;59.280;17.806;2023-07-09T11:30:27;3.42;;;2.38;;
35667;SDS011;22158;59.280;17.806;2023-07-09T11:32:56;2.85;;;2.25;;
35667;SDS011;22158;59.280;17.806;2023-07-09T11:35:24;2.63;;;2.00;;
35667;SDS011;22158;59.280;17.806;2023-07-09T11:37:52;2.80;;;2.22;;
35667;SDS011;22158;59.280;17.806;2023-07-09T11:40:18;2.78;;;2.28;;
35667;SDS011;22158;59.280;17.806;2023-07-09T11:42:47;1.90;;;1.70;;
35667;SDS011;22158;59.280;17.806;2023-07-09T11:45:16;3.10;;;2.10;;
35667;SDS011;22158;59.280;17.806;2023-07-09T11:50:41;3.50;;;2.00;;
35667;SDS011;22158;59.280;17.806;2023-07-09T11:56:03;2.13;;;1.92;;
35667;SDS011;22158;59.280;17.806;2023-07-09T11:58:29;2.38;;;1.45;;
35667;SDS011;22158;59.280;17.806;2023-07-09T12:00:55;5.20;;;2.20;;
35667;SDS011;22158;59.280;17.806;2023-07-09T12:03:27;2.83;;;1.85;;
35667;SDS011;22158;59.280;17.806;2023-07-09T12:06:00;4.65;;;2.10;;
35667;SDS011;22158;59.280;17.806;2023-07-09T12:08:32;2.47;;;1.80;;
35667;SDS011;22158;59.280;17.806;2023-07-09T12:10:59;2.08;;;1.80;;
35667;SDS011;22158;59.280;17.806;2023-07-09T12:13:25;9.07;;;1.65;;
35667;SDS011;22158;59.280;17.806;2023-07-09T12:15:50;3.63;;;1.80;;
35667;SDS011;22158;59.280;17.806;2023-07-09T12:18:16;2.10;;;1.75;;
35667;SDS011;22158;59.280;17.806;2023-07-09T12:20:47;2.78;;;1.70;;
35667;SDS011;22158;59.280;17.806;2023-07-09T12:25:48;3.25;;;1.48;;
35667;SDS011;22158;59.280;17.806;2023-07-09T12:28:15;2.53;;;1.83;;
35667;SDS011;22158;59.280;17.806;2023-07-09T12:30:48;1.90;;;1.60;;
35667;SDS011;22158;59.280;17.806;2023-07-09T12:33:18;3.03;;;1.90;;
35667;SDS011;22158;59.280;17.806;2023-07-09T12:35:46;1.45;;;1.33;;
35667;SDS011;22158;59.280;17.806;2023-07-09T12:38:21;2.72;;;1.40;;
35667;SDS011;22158;59.280;17.806;2023-07-09T12:40:48;3.15;;;1.67;;
35667;SDS011;22158;59.280;17.806;2023-07-09T12:43:24;3.72;;;2.20;;
35667;SDS011;22158;59.280;17.806;2023-07-09T12:45:52;1.85;;;1.63;;
35667;SDS011;22158;59.280;17.806;2023-07-09T12:48:20;3.88;;;1.80;;
35667;SDS011;22158;59.280;17.806;2023-07-09T12:50:49;3.28;;;2.00;;
35667;SDS011;22158;59.280;17.806;2023-07-09T12:53:17;2.40;;;1.83;;
35667;SDS011;22158;59.280;17.806;2023-07-09T12:55:45;3.15;;;2.22;;
35667;SDS011;22158;59.280;17.806;2023-07-09T12:58:20;3.40;;;2.00;;
35667;SDS011;22158;59.280;17.806;2023-07-09T13:00:48;2.38;;;1.60;;
35667;SDS011;22158;59.280;17.806;2023-07-09T13:03:17;2.20;;;1.70;;
35667;SDS011;22158;59.280;17.806;2023-07-09T13:06:47;2.88;;;1.98;;
35667;SDS011;22158;59.280;17.806;2023-07-09T13:08:58;1.90;;;1.70;;
35667;SDS011;22158;59.280;17.806;2023-07-09T13:11:25;2.70;;;1.85;;
35667;SDS011;22158;59.280;17.806;2023-07-09T13:13:58;2.78;;;1.65;;
35667;SDS011;22158;59.280;17.806;2023-07-09T13:16:27;2.93;;;1.63;;
35667;SDS011;22158;59.280;17.806;2023-07-09T13:18:53;3.30;;;1.90;;
35667;SDS011;22158;59.280;17.806;2023-07-09T13:21:19;2.85;;;2.00;;
35667;SDS011;22158;59.280;17.806;2023-07-09T13:23:46;3.13;;;1.90;;
35667;SDS011;22158;59.280;17.806;2023-07-09T13:26:15;1.73;;;1.55;;
35667;SDS011;22158;59.280;17.806;2023-07-09T13:28:42;2.92;;;2.40;;
35667;SDS011;22158;59.280;17.806;2023-07-09T13:31:15;4.60;;;2.75;;
35667;SDS011;22158;59.280;17.806;2023-07-09T13:33:48;4.88;;;2.72;;
35667;SDS011;22158;59.280;17.806;2023-07-09T13:36:17;5.72;;;2.88;;
35667;SDS011;22158;59.280;17.806;2023-07-09T13:38:43;3.25;;;2.83;;
35667;SDS011;22158;59.280;17.806;2023-07-09T13:41:16;3.03;;;2.67;;
35667;SDS011;22158;59.280;17.806;2023-07-09T13:43:44;3.22;;;2.53;;
35667;SDS011;22158;59.280;17.806;2023-07-09T13:46:11;3.10;;;2.40;;
35667;SDS011;22158;59.280;17.806;2023-07-09T13:48:38;3.67;;;2.15;;
35667;SDS011;22158;59.280;17.806;2023-07-09T13:51:10;3.53;;;2.50;;
35667;SDS011;22158;59.280;17.806;2023-07-09T13:53:40;5.40;;;2.50;;
35667;SDS011;22158;59.280;17.806;2023-07-09T13:56:05;3.40;;;2.63;;
35667;SDS011;22158;59.280;17.806;2023-07-09T13:58:31;2.47;;;2.28;;
35667;SDS011;22158;59.280;17.806;2023-07-09T14:01:01;5.07;;;2.72;;
35667;SDS011;22158;59.280;17.806;2023-07-09T14:03:36;2.28;;;2.05;;
35667;SDS011;22158;59.280;17.806;2023-07-09T14:06:02;3.33;;;2.05;;
35667;SDS011;22158;59.280;17.806;2023-07-09T14:08:28;3.13;;;2.33;;
35667;SDS011;22158;59.280;17.806;2023-07-09T14:10:53;3.35;;;2.60;;
35667;SDS011;22158;59.280;17.806;2023-07-09T14:13:21;2.22;;;1.95;;
35667;SDS011;22158;59.280;17.806;2023-07-09T14:15:49;2.78;;;2.30;;
35667;SDS011;22158;59.280;17.806;2023-07-09T14:18:17;2.78;;;2.08;;
35667;SDS011;22158;59.280;17.806;2023-07-09T14:20:44;5.00;;;2.20;;
35667;SDS011;22158;59.280;17.806;2023-07-09T14:23:10;3.17;;;2.45;;
35667;SDS011;22158;59.280;17.806;2023-07-09T14:25:37;3.28;;;2.10;;
35667;SDS011;22158;59.280;17.806;2023-07-09T14:28:12;4.90;;;2.28;;
35667;SDS011;22158;59.280;17.806;2023-07-09T14:30:38;3.50;;;2.15;;
35667;SDS011;22158;59.280;17.806;2023-07-09T14:33:07;2.35;;;2.15;;
35667;SDS011;22158;59.280;17.806;2023-07-09T14:35:38;2.20;;;1.90;;
35667;SDS011;22158;59.280;17.806;2023-07-09T14:38:03;4.53;;;2.35;;
35667;SDS011;22158;59.280;17.806;2023-07-09T14:40:41;2.53;;;2.10;;
35667;SDS011;22158;59.280;17.806;2023-07-09T14:43:08;2.03;;;1.75;;
35667;SDS011;22158;59.280;17.806;2023-07-09T14:45:35;3.40;;;1.73;;
35667;SDS011;22158;59.280;17.806;2023-07-09T14:48:04;2.60;;;2.10;;
35667;SDS011;22158;59.280;17.806;2023-07-09T14:50:34;2.50;;;2.22;;
35667;SDS011;22158;59.280;17.806;2023-07-09T14:53:00;2.35;;;2.00;;
35667;SDS011;22158;59.280;17.806;2023-07-09T14:55:25;2.80;;;2.28;;
35667;SDS011;22158;59.280;17.806;2023-07-09T14:57:52;5.32;;;2.28;;
35667;SDS011;22158;59.280;17.806;2023-07-09T15:00:19;2.63;;;2.22;;
35667;SDS011;22158;59.280;17.806;2023-07-09T15:02:46;5.25;;;2.45;;
35667;SDS011;22158;59.280;17.806;2023-07-09T15:05:17;3.55;;;2.05;;
35667;SDS011;22158;59.280;17.806;2023-07-09T15:07:43;2.25;;;2.05;;
35667;SDS011;22158;59.280;17.806;2023-07-09T15:10:17;3.83;;;2.22;;
35667;SDS011;22158;59.280;17.806;2023-07-09T15:12:47;3.65;;;2.05;;
35667;SDS011;22158;59.280;17.806;2023-07-09T15:17:46;4.13;;;2.25;;
35667;SDS011;22158;59.280;17.806;2023-07-09T15:20:16;2.45;;;2.03;;
35667;SDS011;22158;59.280;17.806;2023-07-09T15:22:44;3.30;;;2.13;;
35667;SDS011;22158;59.280;17.806;2023-07-09T15:25:16;2.22;;;2.03;;